K6PIJ Weather Reports


Display with metric or nautical units.
time (UTC)temp
F
wind
direction
speed
MPH
gust
MPH
rain 1hr
in
rain 24hr
in
rain mn
in
humidity
%
barometer
mb
20181216145558 58 162 7.0 19.0 0.00 0.14 0.13 85 1009.0
20181216145111 59 114 6.0 18.0 0.00 0.14 0.13 85 1008.9
20181216144601 59 115 9.0 21.0 0.00 0.14 0.13 85 1009.0
20181216144514 58 150 5.0 21.0 0.00 0.14 0.13 86 1008.9
20181216144115 58 206 11.0 20.0 0.00 0.14 0.13 85 1009.0
20181216143606 58 95 11.0 20.0 0.00 0.14 0.13 86 1009.0
20181216143059 58 74 5.0 28.0 0.00 0.14 0.13 88 1009.0
20181216143052 58 36 7.0 28.0 0.00 0.14 0.13 88 1009.0
20181216142612 58 96 10.0 21.0 0.00 0.14 0.13 88 1009.1
20181216142104 58 101 11.0 18.0 0.00 0.14 0.13 92 1009.4
20181216141556 57 98 7.0 19.0 0.00 0.14 0.13 97 1009.7
20181216141106 57 84 8.0 19.0 0.00 0.14 0.13 97 1009.8
20181216140558 56 127 6.0 15.0 0.00 0.14 0.13 97 1009.8
20181216140106 56 89 8.0 15.0 0.00 0.14 0.13 97 1010.1
20181216140038 56 115 7.0 15.0 0.00 0.14 0.13 97 1010.1
20181216135558 56 160 8.0 17.0 0.00 0.14 0.13 97 1009.9
20181216135112 56 79 6.0 17.0 0.00 0.14 0.13 97 1010.0
20181216134604 56 82 4.0 15.0 0.01 0.14 0.13 97 1009.9
20181216134544 55 101 4.0 15.0 0.01 0.14 0.13 97 1009.9
20181216134112 56 91 7.0 24.0 0.01 0.14 0.13 97 1009.8
20181216133604 56 116 7.0 24.0 0.01 0.14 0.13 97 1009.7
20181216133128 55 130 13.0 19.0 0.01 0.14 0.13 97 1009.7
20181216133115 56 62 11.0 19.0 0.01 0.14 0.13 97 1009.7
20181216132609 56 153 7.0 25.0 0.01 0.14 0.13 97 1009.8
20181216132102 55 121 11.0 25.0 0.01 0.14 0.13 97 1009.4
20181216131613 55 75 8.0 24.0 0.01 0.14 0.13 98 1009.7
20181216131507 55 120 8.0 21.0 0.01 0.14 0.13 98 1009.8
20181216131102 55 73 14.0 21.0 0.01 0.14 0.13 98 1009.8
20181216130613 55 82 10.0 30.0 0.01 0.14 0.13 98 1009.7
20181216130105 56 117 13.0 30.0 0.01 0.14 0.13 98 1009.8
20181216130057 55 91 13.0 30.0 0.01 0.14 0.13 98 1009.8
20181216125614 55 105 13.0 22.0 0.01 0.14 0.13 98 1009.9
20181216125106 56 122 6.0 20.0 0.01 0.14 0.13 98 1010.1
20181216124615 55 72 6.0 18.0 0.00 0.13 0.12 98 1010.1
20181216124600 56 91 6.0 18.0 0.00 0.13 0.12 98 1010.1
20181216124115 56 122 9.0 20.0 0.00 0.13 0.12 98 1010.4
20181216123604 56 153 9.0 20.0 0.00 0.13 0.12 98 1010.4
20181216123237 55 80 9.0 20.0 0.01 0.13 0.12 98 1010.5
20181216123115 56 147 9.0 20.0 0.00 0.13 0.12 98 1010.5
20181216122607 56 176 9.0 20.0 0.01 0.13 0.12 98 1010.4
20181216122100 55 83 9.0 21.0 0.02 0.13 0.12 98 1010.4
20181216121612 55 79 10.0 22.0 0.04 0.13 0.12 98 1010.1
20181216121523 55 83 8.0 22.0 0.05 0.13 0.12 98 1010.1
20181216121104 55 136 10.0 22.0 0.06 0.13 0.12 98 1010.3
20181216120555 55 87 9.0 22.0 0.07 0.13 0.12 98 1010.3
20181216120209 55 82 11.0 22.0 0.08 0.13 0.12 98 1010.0
20181216120006 55 99 11.0 21.0 0.08 0.13 0.12 98 1010.1
20181216115607 55 70 9.0 21.0 0.09 0.13 0.12 98 1010.1
20181216115100 55 94 6.0 17.0 0.10 0.13 0.12 98 1010.4
20181216114616 55 109 8.0 17.0 0.10 0.13 0.12 97 1010.5
20181216114520 54 102 8.0 20.0 0.10 0.13 0.12 97 1010.5
20181216114107 55 77 7.0 21.0 0.11 0.13 0.12 97 1010.9
20181216113600 55 77 10.0 23.0 0.11 0.13 0.12 97 1010.9
20181216113111 55 90 12.0 30.0 0.11 0.13 0.12 97 1010.0
20181216113051 54 127 12.0 38.0 0.10 0.12 0.12 97 1010.0
20181216112603 55 89 14.0 38.0 0.10 0.12 0.11 97 1008.9
20181216112111 55 119 14.0 38.0 0.10 0.11 0.10 97 1008.9
20181216111601 55 88 21.0 34.0 0.08 0.09 0.08 96 1008.9
20181216111112 55 134 18.0 27.0 0.06 0.07 0.06 95 1010.3
20181216110604 55 84 13.0 23.0 0.05 0.06 0.05 94 1011.1
20181216110113 55 80 10.0 23.0 0.04 0.05 0.04 93 1011.8
20181216110034 55 89 9.0 23.0 0.04 0.05 0.04 93 1011.9
20181216105559 55 73 9.0 20.0 0.03 0.04 0.03 93 1012.0
20181216105110 56 83 10.0 21.0 0.02 0.03 0.02 92 1012.3
20181216104600 56 127 7.0 21.0 0.02 0.03 0.02 91 1012.4
20181216104516 55 118 6.0 21.0 0.02 0.03 0.02 90 1012.4
20181216104116 56 86 6.0 16.0 0.01 0.02 0.01 89 1012.6
20181216103605 57 64 6.0 16.0 0.01 0.02 0.01 87 1012.7
20181216103058 57 77 6.0 18.0 0.01 0.02 0.01 86 1012.7
20181216103056 57 102 5.0 18.0 0.01 0.02 0.01 86 1012.7
20181216102609 57 91 9.0 23.0 0.01 0.02 0.01 85 1012.8
20181216102103 58 126 6.0 23.0 0.00 0.01 0.00 84 1012.8
20181216101639 57 131 8.0 15.0 0.00 0.01 0.00 83 1012.7
20181216101616 58 101 8.0 15.0 0.00 0.01 0.00 83 1012.7
20181216101110 58 148 5.0 18.0 0.00 0.01 0.00 83 1012.8
20181216100603 58 117 8.0 18.0 0.00 0.01 0.00 83 1012.9
20181216100115 58 98 7.0 17.0 0.00 0.01 0.00 83 1012.9
20181216100019 57 71 7.0 17.0 0.00 0.01 0.00 83 1012.9
20181216095607 58 94 9.0 17.0 0.00 0.01 0.00 83 1012.8
20181216095059 58 87 8.0 17.0 0.00 0.01 0.00 84 1012.8
20181216094611 58 96 7.0 17.0 0.00 0.01 0.00 84 1012.7
20181216094554 57 196 8.0 17.0 0.00 0.01 0.00 84 1012.7
20181216094102 58 146 6.0 17.0 0.00 0.01 0.00 84 1013.1
20181216093614 58 101 9.0 17.0 0.00 0.01 0.00 83 1012.6
20181216093107 58 120 9.0 17.0 0.00 0.01 0.00 83 1012.7
20181216093104 58 99 8.0 17.0 0.00 0.01 0.00 83 1012.7
20181216092558 59 96 9.0 18.0 0.00 0.01 0.00 81 1012.6
20181216092111 59 132 9.0 18.0 0.00 0.01 0.00 80 1012.4
20181216091604 59 129 10.0 23.0 0.00 0.01 0.00 79 1012.2
20181216091058 59 63 11.0 23.0 0.00 0.01 0.00 79 1012.1
20181216090606 59 119 8.0 18.0 0.00 0.01 0.00 80 1012.1
20181216090058 59 120 10.0 20.0 0.00 0.01 0.00 81 1012.4
20181216090025 58 136 10.0 20.0 0.00 0.01 0.00 81 1012.4
20181216085610 59 151 9.0 22.0 0.00 0.01 0.00 81 1012.4
20181216085102 59 163 14.0 22.0 0.00 0.01 0.00 80 1012.5
20181216084609 59 155 11.0 18.0 0.00 0.01 0.00 81 1012.5
20181216084547 58 146 12.0 20.0 0.00 0.01 0.00 81 1012.5
20181216084058 59 158 11.0 20.0 0.00 0.01 0.00 82 1012.3
20181216083609 59 135 11.0 17.0 0.00 0.01 0.00 83 1012.5
20181216083102 58 138 8.0 20.0 0.00 0.01 0.00 83 1012.6
20181216083100 59 145 6.0 20.0 0.00 0.01 0.00 83 1012.6
20181216082614 58 142 8.0 20.0 0.00 0.01 0.00 84 1012.4
20181216082102 58 121 10.0 20.0 0.00 0.01 0.00 85 1012.2
20181216081710 57 147 10.0 20.0 0.01 0.01 0.00 86 1012.1
20181216081613 58 154 11.0 20.0 0.01 0.01 0.00 86 1012.1
20181216081103 57 193 10.0 18.0 0.01 0.01 0.00 89 1012.2
20181216080613 57 127 11.0 18.0 0.01 0.01 0.00 90 1012.1
20181216080103 57 106 8.0 18.0 0.01 0.01 0.00 91 1012.2
20181216080059 56 112 8.0 18.0 0.01 0.01 0.00 91 1012.2
20181216075608 57 134 8.0 16.0 0.01 0.01 0.01 91 1012.1
20181216075100 57 127 8.0 17.0 0.01 0.01 0.01 91 1012.3
20181216074612 57 129 8.0 16.0 0.01 0.01 0.01 91 1012.3
20181216074543 56 134 8.0 16.0 0.01 0.01 0.01 91 1012.3
20181216074106 57 127 8.0 14.0 0.01 0.01 0.01 91 1012.3
20181216073559 57 141 7.0 15.0 0.01 0.01 0.01 91 1012.2
20181216073110 57 108 8.0 19.0 0.01 0.01 0.01 91 1012.3
20181216072604 57 134 8.0 19.0 0.01 0.01 0.01 91 1012.2
20181216072115 57 137 9.0 18.0 0.01 0.01 0.01 90 1012.3
20181216071606 57 150 11.0 19.0 0.00 0.00 0.00 90 1012.2
20181216071517 56 136 11.0 19.0 0.00 0.00 0.00 90 1012.2
20181216071056 57 145 8.0 17.0 0.00 0.00 0.00 91 1012.4
20181216070610 57 136 7.0 22.0 0.00 0.00 0.00 90 1012.4
20181216070103 57 138 11.0 22.0 0.00 0.00 0.00 89 1012.1
20181216070051 57 100 10.0 22.0 0.00 0.00 0.00 89 1012.1
20181216065614 57 184 9.0 20.0 0.00 0.00 0.00 89 1012.2
20181216065107 57 137 9.0 20.0 0.00 0.00 0.00 89 1012.1
20181216064642 57 117 10.0 20.0 0.00 0.00 0.00 89 1012.0
20181216064558 57 133 9.0 20.0 0.00 0.00 0.00 89 1012.0
20181216064112 57 231 8.0 18.0 0.00 0.00 0.00 89 1012.1
20181216063603 57 141 9.0 18.0 0.00 0.00 0.00 88 1012.1
20181216063143 57 153 8.0 20.0 0.00 0.00 0.00 88 1012.0
20181216063116 58 119 10.0 20.0 0.00 0.00 0.00 88 1012.0
20181216063002 57 96 9.0 20.0 0.00 0.00 0.00 88 1011.9
20181216062609 58 115 7.0 20.0 0.00 0.00 0.00 88 1012.0
20181216062103 58 128 8.0 22.0 0.00 0.00 0.00 88 1012.1
20181216061618 57 105 7.0 18.0 0.00 0.00 0.00 87 1012.1
20181216061612 58 134 8.0 22.0 0.00 0.00 0.00 87 1012.1
20181216061102 58 175 9.0 16.0 0.00 0.00 0.00 87 1012.1
20181216060614 58 58 6.0 16.0 0.00 0.00 0.00 87 1012.0
20181216060217 58 113 5.0 18.0 0.00 0.00 0.00 86 1012.0
20181216060101 58 113 7.0 18.0 0.00 0.00 0.00 86 1012.0
20181216055611 58 120 9.0 17.0 0.00 0.00 0.00 86 1012.0
20181216055104 58 137 10.0 19.0 0.00 0.00 0.00 86 1012.1
20181216054557 58 163 9.0 19.0 0.00 0.00 0.00 86 1012.1
20181216054110 58 124 8.0 22.0 0.00 0.00 0.00 86 1012.2
20181216053602 58 131 7.0 22.0 0.00 0.00 0.00 85 1012.2
20181216053115 58 204 8.0 16.0 0.00 0.00 0.00 85 1012.2
20181216053012 58 98 6.0 17.0 0.00 0.00 0.00 85 1012.1
20181216052605 59 212 9.0 17.0 0.00 0.00 0.00 84 1012.2
20181216052056 59 147 9.0 17.0 0.00 0.00 0.00 84 1012.3
20181216051605 58 142 8.0 16.0 0.00 0.00 0.00 84 1012.2
20181216051557 58 91 7.0 16.0 0.00 0.00 0.00 84 1012.2
20181216051059 58 107 7.0 16.0 0.00 0.00 0.00 84 1012.3
20181216050613 59 117 7.0 18.0 0.00 0.00 0.00 84 1012.1
20181216050102 59 89 8.0 20.0 0.00 0.00 0.00 84 1012.1
20181216045614 59 1 10.0 20.0 0.00 0.00 0.00 83 1012.1
20181216045106 59 199 8.0 15.0 0.00 0.00 0.00 83 1012.0
20181216044732 59 133 8.0 18.0 0.00 0.00 0.00 82 1012.0
20181216044614 59 124 7.0 18.0 0.00 0.00 0.00 82 1012.0
20181216044104 59 147 9.0 18.0 0.00 0.00 0.00 82 1011.9
20181216043556 59 101 9.0 19.0 0.00 0.00 0.00 83 1011.9
20181216043108 59 141 10.0 19.0 0.00 0.00 0.00 82 1011.9
20181216043031 59 114 9.0 19.0 0.00 0.00 0.00 82 1011.9
20181216042601 59 110 8.0 23.0 0.00 0.00 0.00 83 1011.7
20181216042112 59 110 9.0 23.0 0.00 0.00 0.00 83 1011.7
20181216041628 58 133 4.0 19.0 0.00 0.00 0.00 83 1011.7
20181216041603 59 295 5.0 19.0 0.00 0.00 0.00 83 1011.7
20181216041114 59 82 6.0 19.0 0.00 0.00 0.00 83 1011.8
20181216040607 59 172 9.0 19.0 0.00 0.00 0.00 83 1012.0
20181216040101 59 316 7.0 18.0 0.00 0.00 0.00 82 1012.1
20181216035610 59 12 6.0 18.0 0.00 0.00 0.00 81 1012.1
20181216035103 59 94 9.0 22.0 0.00 0.00 0.00 81 1012.0
20181216034608 59 128 8.0 18.0 0.00 0.00 0.00 81 1011.9
20181216034508 59 161 6.0 16.0 0.00 0.00 0.00 81 1011.8
20181216034059 59 81 8.0 16.0 0.00 0.00 0.00 81 1011.9
20181216033613 59 153 7.0 15.0 0.00 0.00 0.00 81 1011.9
20181216033131 59 109 7.0 15.0 0.00 0.00 0.00 80 1011.9
20181216033105 59 91 7.0 15.0 0.00 0.00 0.00 80 1011.9
20181216032558 59 122 7.0 15.0 0.00 0.00 0.00 80 1012.1
20181216032110 59 136 6.0 14.0 0.00 0.00 0.00 80 1012.1
20181216031601 60 153 6.0 14.0 0.00 0.00 0.00 79 1012.0
20181216031115 60 219 6.0 15.0 0.00 0.00 0.00 78 1012.0
20181216030607 60 136 7.0 15.0 0.00 0.00 0.00 77 1011.9
20181216030059 60 136 7.0 14.0 0.00 0.00 0.00 77 1012.0
20181216030037 60 137 7.0 14.0 0.00 0.00 0.00 77 1012.0
20181216025610 60 205 7.0 17.0 0.00 0.00 0.00 76 1012.0
20181216025104 60 205 8.0 17.0 0.00 0.00 0.00 76 1012.0
20181216024625 60 122 10.0 19.0 0.00 0.00 0.00 76 1011.9
20181216024614 60 114 9.0 19.0 0.00 0.00 0.00 76 1011.9
20181216024106 60 112 9.0 19.0 0.00 0.00 0.00 76 1012.0
20181216023559 60 110 7.0 17.0 0.00 0.00 0.00 76 1011.8
20181216023149 60 123 8.0 18.0 0.00 0.00 0.00 75 1011.9
20181216023112 60 173 7.0 18.0 0.00 0.00 0.00 75 1011.9
20181216022604 60 158 6.0 22.0 0.00 0.00 0.00 75 1011.9
20181216022116 60 143 10.0 22.0 0.00 0.00 0.00 75 1011.7
20181216021605 60 151 9.0 18.0 0.00 0.00 0.00 75 1011.8
20181216021527 60 122 7.0 17.0 0.00 0.00 0.00 75 1011.8
20181216021057 60 143 9.0 18.0 0.00 0.00 0.00 75 1011.9
20181216020611 60 150 9.0 18.0 0.00 0.00 0.00 75 1011.9
20181216020109 60 178 8.0 18.0 0.00 0.00 0.00 75 1011.7
20181216020102 60 169 7.0 18.0 0.00 0.00 0.00 75 1011.7
20181216015612 60 150 9.0 27.0 0.00 0.00 0.00 75 1011.8
20181216015102 60 141 10.0 27.0 0.00 0.00 0.00 75 1011.7
20181216014706 59 127 8.0 20.0 0.00 0.00 0.00 76 1011.8
20181216014612 60 155 7.0 20.0 0.00 0.00 0.00 76 1011.8
20181216014101 60 144 6.0 15.0 0.00 0.00 0.00 76 1012.0
20181216013613 60 147 8.0 17.0 0.00 0.00 0.00 77 1012.0
20181216013107 60 196 8.0 23.0 0.00 0.00 0.00 77 1012.2
20181216013018 59 141 7.0 23.0 0.00 0.00 0.00 77 1012.2
20181216012558 60 125 9.0 17.0 0.00 0.00 0.00 77 1012.1
20181216012107 60 43 9.0 15.0 0.00 0.00 0.00 78 1012.1
20181216011558 60 148 8.0 17.0 0.00 0.00 0.00 78 1012.0
20181216011553 59 160 7.0 17.0 0.00 0.00 0.00 78 1012.0
20181216011105 60 138 8.0 18.0 0.00 0.00 0.00 78 1012.1
20181216010558 60 98 8.0 18.0 0.00 0.00 0.00 78 1012.0
20181216010112 59 85 9.0 23.0 0.00 0.00 0.00 78 1012.0
20181216010110 59 129 8.0 23.0 0.00 0.00 0.00 78 1012.0
20181216005557 59 136 8.0 23.0 0.00 0.00 0.00 79 1012.1
20181216005107 59 152 10.0 19.0 0.00 0.00 0.00 79 1012.2
20181216004813 59 127 7.0 16.0 0.00 0.00 0.00 79 1012.4
20181216004601 59 113 8.0 16.0 0.00 0.00 0.00 79 1012.4
20181216004114 59 132 6.0 21.0 0.00 0.00 0.00 79 1012.4
20181216003608 59 122 8.0 21.0 0.00 0.00 0.00 79 1012.3
20181216003100 59 84 10.0 18.0 0.00 0.00 0.00 79 1012.3
20181216003047 59 153 9.0 18.0 0.00 0.00 0.00 79 1012.3
20181216002612 59 149 8.0 19.0 0.00 0.00 0.00 79 1012.2
20181216002104 59 116 11.0 19.0 0.00 0.00 0.00 80 1012.1
20181216001557 59 104 10.0 20.0 0.00 0.00 0.00 80 1012.0
20181216001111 59 136 11.0 24.0 0.00 0.00 0.00 80 1012.0
20181216000602 59 107 9.0 24.0 0.00 0.00 0.00 80 1012.1
20181216000114 59 105 10.0 21.0 0.00 0.00 0.00 79 1011.9
20181216000029 59 157 7.0 21.0 0.00 0.00 0.00 79 1011.9
20181215235605 59 119 11.0 21.0 0.00 0.00 0.00 80 1011.7
20181215235058 59 131 9.0 20.0 0.00 0.00 0.00 80 1011.8
20181215234610 58 82 9.0 20.0 0.00 0.00 0.00 81 1011.7
20181215234546 58 77 8.0 20.0 0.00 0.00 0.00 81 1011.7
20181215234101 58 113 8.0 15.0 0.00 0.00 0.00 82 1011.9
20181215233613 58 100 8.0 20.0 0.00 0.00 0.00 82 1012.1
20181215233127 57 76 9.0 20.0 0.00 0.00 0.00 82 1012.2
20181215233102 58 91 9.0 20.0 0.00 0.00 0.00 82 1012.2
20181215232612 58 78 8.0 19.0 0.00 0.00 0.00 82 1012.5
20181215232103 58 79 9.0 19.0 0.00 0.00 0.00 81 1012.6
20181215231802 58 97 6.0 16.0 0.00 0.00 0.00 81 1012.5
20181215231617 58 56 7.0 16.0 0.00 0.00 0.00 81 1012.5
20181215231523 58 137 7.0 16.0 0.00 0.00 0.00 81 1012.5
20181215231108 59 167 10.0 17.0 0.00 0.00 0.00 80 1012.5
20181215230559 58 147 7.0 17.0 0.00 0.00 0.00 80 1012.5
20181215230126 58 134 6.0 15.0 0.00 0.00 0.00 80 1012.7
20181215230110 58 134 8.0 15.0 0.00 0.00 0.00 80 1012.7
20181215225559 58 146 6.0 14.0 0.00 0.00 0.00 81 1012.6
20181215225110 58 117 4.0 13.0 0.00 0.00 0.00 81 1012.8
20181215224604 58 97 4.0 15.0 0.00 0.00 0.00 81 1012.9
20181215224553 58 108 4.0 15.0 0.00 0.00 0.00 81 1012.9
20181215224108 58 74 6.0 15.0 0.00 0.00 0.00 81 1012.8
20181215223558 58 144 6.0 14.0 0.00 0.00 0.00 81 1012.9
20181215223216 58 118 7.0 17.0 0.00 0.00 0.00 80 1012.8
20181215223111 58 139 6.0 17.0 0.00 0.00 0.00 80 1012.8
20181215222604 58 138 7.0 17.0 0.00 0.00 0.00 79 1013.1
20181215222116 59 142 7.0 16.0 0.00 0.00 0.00 77 1013.1
20181215221608 59 98 6.0 12.0 0.00 0.00 0.00 76 1013.0
20181215221525 59 179 3.0 10.0 0.00 0.00 0.00 76 1013.0
20181215221059 59 110 5.0 14.0 0.00 0.00 0.00 76 1013.0
20181215220610 59 132 8.0 14.0 0.00 0.00 0.00 76 1012.9
20181215220102 58 110 6.0 14.0 0.00 0.19 0.00 77 1013.0
20181215220057 58 84 7.0 14.0 0.00 0.00 0.00 77 1013.0
20181215215606 58 86 8.0 14.0 0.00 0.19 0.00 78 1013.1
20181215215115 58 200 7.0 12.0 0.00 0.19 0.00 78 1013.2
20181215214606 58 81 5.0 15.0 0.00 0.19 0.00 79 1013.4
20181215214604 57 158 4.0 15.0 0.00 0.19 0.00 79 1013.4
20181215214056 58 103 6.0 15.0 0.00 0.19 0.00 78 1013.3
20181215213610 58 91 5.0 12.0 0.00 0.19 0.00 78 1013.4
20181215213146 57 117 6.0 14.0 0.00 0.19 0.00 78 1013.3
20181215213101 58 145 7.0 14.0 0.00 0.19 0.00 78 1013.3
20181215212614 58 78 7.0 14.0 0.00 0.19 0.00 78 1013.4
20181215212107 58 108 6.0 14.0 0.00 0.19 0.00 79 1013.4
20181215211600 58 132 7.0 14.0 0.00 0.19 0.00 79 1013.4
20181215211549 57 102 4.0 14.0 0.00 0.19 0.00 80 1013.4
20181215211111 57 174 6.0 14.0 0.00 0.19 0.00 80 1013.5
20181215210605 57 76 5.0 17.0 0.00 0.19 0.00 80 1013.7
20181215210114 56 122 8.0 17.0 0.00 0.19 0.00 80 1013.7
20181215210035 56 47 8.0 17.0 0.00 0.19 0.00 80 1013.7
20181215205603 56 141 10.0 20.0 0.00 0.21 0.00 80 1013.3
20181215205114 56 57 12.0 20.0 0.00 0.21 0.00 80 1013.3
20181215204607 56 152 10.0 23.0 0.00 0.21 0.00 80 1013.4
20181215204552 55 46 8.0 23.0 0.00 0.21 0.00 80 1013.4
20181215204059 56 77 11.0 23.0 0.00 0.21 0.00 79 1013.4
20181215203609 56 77 10.0 20.0 0.00 0.21 0.00 79 1013.6
20181215203102 56 141 7.0 18.0 0.00 0.21 0.00 78 1013.8
20181215202613 56 84 7.0 19.0 0.00 0.21 0.00 78 1013.9
20181215202106 55 302 11.0 27.0 0.00 0.21 0.00 78 1013.7
20181215201557 55 90 11.0 27.0 0.00 0.21 0.00 79 1013.9
20181215201526 55 68 9.0 27.0 0.00 0.21 0.00 79 1013.9
20181215201103 55 87 9.0 19.0 0.00 0.21 0.00 79 1014.1
20181215200614 55 6 11.0 20.0 0.00 0.21 0.00 78 1014.4
20181215200116 55 80 9.0 20.0 0.00 0.21 0.00 78 1014.8
20181215200104 55 100 11.0 20.0 0.00 0.21 0.00 78 1014.8
20181215195556 55 89 8.0 15.0 0.00 0.44 0.00 78 1015.1
20181215195107 56 84 6.0 12.0 0.00 0.44 0.00 78 1015.2
20181215194649 55 74 5.0 11.0 0.00 0.44 0.00 78 1015.3
20181215194558 56 70 4.0 11.0 0.00 0.44 0.00 78 1015.3
20181215194109 55 79 5.0 10.0 0.00 0.44 0.00 78 1015.5
20181215193601 55 65 5.0 15.0 0.00 0.44 0.00 78 1015.6
20181215193159 54 170 4.0 15.0 0.00 0.44 0.00 78 1015.6
20181215193114 55 78 4.0 15.0 0.00 0.44 0.00 78 1015.6
20181215192602 55 179 5.0 14.0 0.00 0.44 0.00 78 1015.6
20181215192112 54 77 6.0 14.0 0.00 0.44 0.00 78 1015.4
20181215191602 54 141 4.0 14.0 0.00 0.44 0.00 79 1015.4
20181215191534 53 155 4.0 16.0 0.00 0.44 0.00 79 1015.4
20181215191114 54 139 8.0 16.0 0.00 0.44 0.00 79 1015.2
20181215190605 53 149 8.0 14.0 0.00 0.44 0.00 80 1015.1
20181215190116 52 78 8.0 18.0 0.00 0.44 0.00 79 1015.0
20181215190108 52 136 7.0 18.0 0.00 0.44 0.00 79 1015.0
20181215185603 52 88 10.0 18.0 0.00 0.53 0.00 78 1015.0
20181215185116 52 131 9.0 16.0 0.00 0.53 0.00 79 1015.1
20181215184609 52 71 9.0 16.0 0.00 0.53 0.00 78 1015.2
20181215184542 52 104 9.0 16.0 0.00 0.53 0.00 78 1015.2
20181215184058 52 105 8.0 15.0 0.00 0.53 0.00 78 1015.4
20181215183609 52 138 7.0 18.0 0.00 0.53 0.00 79 1015.6
20181215183059 51 124 7.0 18.0 0.00 0.53 0.00 80 1015.6
20181215182611 51 85 8.0 17.0 0.00 0.53 0.00 79 1015.6
20181215182102 51 109 8.0 15.0 0.00 0.53 0.00 78 1015.7
20181215181613 51 79 7.0 15.0 0.00 0.53 0.00 76 1016.0
20181215181601 50 119 6.0 15.0 0.00 0.53 0.00 76 1016.0
20181215181104 51 78 6.0 16.0 0.00 0.53 0.00 76 1016.2
20181215180616 51 86 7.0 16.0 0.00 0.53 0.00 75 1016.4
20181215180109 51 127 7.0 16.0 0.00 0.53 0.00 75 1016.5
20181215180037 50 63 6.0 16.0 0.00 0.53 0.00 75 1016.5
20181215175557 51 143 7.0 13.0 0.00 0.53 0.00 75 1016.6
20181215175104 51 117 7.0 13.0 0.00 0.53 0.00 75 1016.5
20181215174616 50 131 7.0 13.0 0.00 0.53 0.00 75 1016.6
20181215174531 50 23 5.0 13.0 0.00 0.53 0.00 75 1016.6
20181215174108 50 100 5.0 13.0 0.00 0.53 0.00 76 1016.7
20181215173600 49 130 4.0 13.0 0.00 0.53 0.00 76 1016.8
20181215173124 48 93 6.0 13.0 0.00 0.53 0.00 76 1016.7
20181215173112 49 123 7.0 13.0 0.00 0.53 0.00 76 1016.7
20181215172602 49 77 4.0 12.0 0.00 0.53 0.00 77 1016.8
20181215172114 49 82 6.0 11.0 0.00 0.53 0.00 76 1016.9
20181215171604 49 94 5.0 14.0 0.00 0.53 0.00 76 1017.0
20181215171534 48 46 6.0 14.0 0.00 0.53 0.00 76 1017.0
20181215171116 49 53 6.0 14.0 0.00 0.53 0.00 75 1017.1
20181215170607 49 82 7.0 14.0 0.00 0.53 0.00 76 1017.0
20181215170057 49 68 5.0 17.0 0.00 0.53 0.00 76 1016.9
20181215170046 48 98 6.0 17.0 0.00 0.53 0.00 76 1016.9
20181215165609 49 101 6.0 17.0 0.00 0.53 0.00 76 1016.9
20181215165059 49 86 8.0 13.0 0.00 0.53 0.00 76 1016.8
20181215164615 48 94 5.0 11.0 0.00 0.53 0.00 77 1016.8
20181215164542 48 134 5.0 11.0 0.00 0.53 0.00 77 1016.8
20181215164104 48 138 4.0 11.0 0.00 0.53 0.00 77 1016.9
20181215163616 48 143 3.0 10.0 0.00 0.53 0.00 78 1016.8
20181215163111 48 94 4.0 12.0 0.00 0.53 0.00 77 1016.8
20181215162600 48 123 5.0 14.0 0.00 0.53 0.00 77 1016.8
20181215162112 48 121 5.0 14.0 0.00 0.53 0.00 77 1016.7
20181215161600 48 66 3.0 15.0 0.00 0.53 0.00 77 1016.7
20181215161528 48 93 2.0 15.0 0.00 0.53 0.00 78 1016.7
20181215161114 48 123 7.0 15.0 0.00 0.53 0.00 78 1016.7
20181215160606 48 131 4.0 10.0 0.00 0.53 0.00 79 1016.6
20181215160056 47 158 5.0 12.0 0.00 0.53 0.00 80 1016.6
20181215160048 47 147 4.0 12.0 0.00 0.53 0.00 80 1016.6
20181215155607 47 128 4.0 12.0 0.00 0.53 0.00 81 1016.5
20181215155058 47 89 5.0 13.0 0.00 0.53 0.00 81 1016.4
20181215154624 47 122 5.0 16.0 0.00 0.53 0.00 81 1016.5
20181215154609 47 122 6.0 13.0 0.00 0.53 0.00 81 1016.5
20181215154059 47 110 5.0 18.0 0.00 0.53 0.00 81 1016.4
20181215153612 47 80 7.0 18.0 0.00 0.53 0.00 81 1016.4
20181215153103 47 80 6.0 17.0 0.00 0.53 0.00 82 1016.4
20181215153011 46 110 5.0 17.0 0.00 0.53 0.00 82 1016.5
20181215152612 47 139 8.0 18.0 0.00 0.53 0.00 82 1016.4
20181215152100 47 71 10.0 18.0 0.00 0.53 0.00 82 1016.4
20181215151611 47 141 8.0 18.0 0.00 0.53 0.00 83 1016.6
20181215151529 46 154 7.0 18.0 0.00 0.53 0.00 83 1016.6
20181215151100 46 100 9.0 15.0 0.00 0.53 0.00 83 1016.7
20181215150613 46 80 7.0 15.0 0.00 0.53 0.00 84 1016.9
20181215150102 46 83 5.0 15.0 0.00 0.53 0.00 84 1017.1